createdAt,value
2023-01-05T00:11:19.861Z,87.44
2023-01-05T01:11:19.724Z,86.86
2023-01-05T01:41:19.693Z,86.63
2023-01-05T02:11:19.565Z,87
2023-01-05T02:41:19.517Z,87.37
2023-01-05T03:11:19.399Z,87.44
2023-01-05T03:41:19.244Z,87.09
2023-01-05T04:11:19.159Z,87.25
2023-01-05T04:41:19.034Z,88.94
2023-01-05T05:11:18.979Z,90.22
2023-01-05T05:41:18.928Z,89.9
2023-01-05T06:00:19.478Z,91.18
2023-01-05T06:11:18.869Z,91.18
2023-01-05T06:41:18.729Z,93.71
2023-01-05T08:11:18.354Z,96.91
2023-01-05T08:41:18.272Z,97.1
2023-01-05T09:11:18.084Z,97.32
2023-01-05T09:41:17.970Z,97.06
2023-01-05T10:11:17.950Z,96.89
2023-01-05T10:34:18.704Z,95.91
2023-01-05T10:41:17.903Z,95.91
2023-01-05T11:11:17.750Z,94.67
2023-01-05T11:41:17.562Z,93.65
2023-01-05T12:11:17.425Z,92.57
2023-01-05T12:41:17.303Z,91.91
2023-01-05T12:59:18.216Z,90.31
2023-01-05T13:11:17.194Z,90.31
2023-01-05T13:29:18.192Z,88.28
2023-01-05T13:41:17.100Z,88.28
2023-01-05T13:59:24.325Z,86.35
2023-01-05T14:11:16.984Z,86.35
2023-01-05T14:36:17.997Z,86.83
2023-01-05T14:41:16.888Z,86.83
2023-01-05T14:58:17.894Z,86.84
2023-01-05T15:11:16.705Z,86.84
2023-01-05T15:41:16.665Z,88.3
2023-01-05T16:11:16.524Z,88.66
2023-01-05T16:41:16.440Z,88.92
2023-01-05T17:11:16.347Z,89.7
2023-01-05T17:41:17.033Z,90.96
2023-01-05T18:11:16.584Z,92.86
2023-01-05T18:41:16.115Z,93.9
2023-01-05T19:11:16.040Z,94.59
2023-01-05T19:41:15.828Z,95.66
2023-01-05T20:11:15.778Z,96.84
2023-01-05T20:41:15.675Z,96.62
2023-01-05T21:11:15.601Z,98.16
2023-01-05T21:41:15.453Z,98.75
2023-01-05T22:11:15.418Z,99.07
2023-01-05T22:41:15.278Z,99.34
2023-01-05T23:11:15.194Z,99.17
2023-01-05T23:41:15.031Z,98.96
